Agua Colorada, Mexico

2:52 PM CDT on April 23, 2017 (GMT -0500)
De Guanajuato International | | Change Station

Elev 5968 ft 21.00 °N, 101.48 °W | Updated 1 hour ago

Clear
Clear
81 °F
Feels Like 81 °F
N
6
Wind Variable Wind from North

Today
High -- | Low -- °F
--% Chance of Precip.
Yesterday
High -- | Low -- °F
Precip. -- in
Pressure 30.23 in
Visibility 8.0 miles
Clouds Few 3000 ft
Dew Point 34 °F
Humidity 18%
Rainfall 0.00 in
Snow Depth Not available.
7:19 AM 8:07 PM
Waning Crescent, 10% visible
METAR MMLO 231842Z 36005KT 8SM FEW030 27/01 A3023 RMK 8/100 HZY
Pressure 30.23 in
Visibility 8.0 miles
Clouds Few 3000 ft
Dew Point 34 °F
Humidity 18%
Rainfall 0.00 in
Snow Depth Not available.
7:19 AM 8:07 PM
Waning Crescent, 10% visible
METAR MMLO 231842Z 36005KT 8SM FEW030 27/01 A3023 RMK 8/100 HZY

Get Severe Weather Alerts

Thanks for signing up!

Be on the lookout for a verification email in your inbox.

You'll start receiving the daily forecast at 8 AM.

×

10-Day Weather Forecast

No radar image for this location.
×

Almanac

Astronomy

Apr. 23, 2017 Rise Set
Actual Time
Civil Twilight
Nautical Twilight
Astronomical Twilight
Moon
Length of Visible Light
Length of Day
Tomorrow will be .
, % of the Moon is Illuminated

Today's Extremes

Country Highs Country Lows

Community

WunderPhotos

WunderBlog® & News

Nearby

Air Quality

  Air Quality AQ Index Pollutant
Not available.

Snow Depth

Station Depth Elevation

Earthquake Activity

City Distance Mag. Time & Date
Minimum magnitude displayed is 2.5.

Coastal Water Temperatures

Place Temperature

Stations

Nearby Weather Stations

Station Location Temp. Windchill Dew Point Humidity Wind Precip. Elev Updated Type